Portada
METAR-TAF:

METAR-TAF

Aeroports :

Bombai, Índia

latitud: 19-07N, longitud: 072-51E, altitud: 8 m

Observació

L'informe es va fer fa 38 minuts, a les 07:00 UTC
Vent 7 kt del Sud-Est
Temperatura 32°C
Humitat 49%
Pressió 1012 hPa
Visibilitat: 2500 m
Escasses núvols a una alçada de 2000 ft
Cel ennuvolat a una alçada de 10000 ft
fum

METAR: VABB 150700Z 14007KT 2500 FU FEW020 BKN100 32/20 Q1012 NOSIG

Hora: 13:08 (07:38 UTC)

Pronòstic

L'informe es va fer fa 2 hores i 38 minuts, a les 05:00 UTC
Pronòstic vàlid del 15 a les 06 UTC al 15 a les 15 UTC
Vent 8 kt del Est/Sud-Est
Visibilitat: 3000 m
fum
Evolucionant progressivament
l' 15 a les 09 UTC al 15 a les 11 UTC
Vent 7 kt del Oest
Visibilitat: 4000 m
fum
Evolucionant progressivament
l' 15 a les 13 UTC al 15 a les 15 UTC
Vent 5 kt del Nord/Nord-Oest
Visibilitat: 3000 m
fum

TAF: VABB 150500Z 1506/1515 11008KT 3000 FU NSC BECMG 1509/1511 27007KT 4000 FU BECMG 1513/1515 34005KT 3000 FU

Observacions i pronòstics meteorològics de més de 4000 aeroports (METAR i TAF).

Les estacions disponibles són els punts grocs i vermells al mapa.

Posi el ratolí al punt desitjat per veure el nom de l'estació.

Feu clic per veure les observacions i els pronòstics meteorològics.

Per canviar el mapa: feu clic els botons verds amb una creu de color negre per apropar; al botó verd amb un guió per allunyar la imatge; o en les fletxes verdes per a mapes adjacents.


METAR-TAF: